Knob Noster, Missouri
Current Conditions -  °F | °C
As of 3:58 PM on Thursday 23 Oct 2014 (Local Time) from KSZL Reporting Station
Overcast Overcast  
Wind Chill: 67°   Ceiling: 2000
Heat Index: 67°   Visibility: 10mi
Dew Point: 58°   Wind: 9mph
Humidity: 74%   Direction: 250°WSW
Pressure: 30.06"   Gusts: NA
Location:  38.77°N, 93.56°W
Report Text: KSZL 232058Z 25008KT 10SM OVC020 19/15 A3006 RMK AO2A BKN V OVC SLP180 T01930145 55018 $
Loading
Personal Weather Stations






























Interactive Weather Map
Tropical Storm Tracking
New forecast layout! Learn more

10-Day Weather Forecast

Advertisements
Track Severe Weather on mobile